createdAt,value
2017-03-11T00:00:37.472Z,19.37
2017-03-11T00:01:34.262Z,19.37
2017-03-11T00:02:35.206Z,19.36
2017-03-11T00:03:48.801Z,19.35
2017-03-11T00:04:37.747Z,19.33
2017-03-11T00:05:41.474Z,19.32
2017-03-11T00:06:36.762Z,19.35
2017-03-11T00:07:36.595Z,19.31
2017-03-11T00:08:38.676Z,19.30
2017-03-11T00:09:37.507Z,19.31
2017-03-11T00:10:44.664Z,19.30
2017-03-11T00:11:45.757Z,19.31
2017-03-11T00:12:39.593Z,19.30
2017-03-11T00:13:33.602Z,19.31
2017-03-11T00:14:40.171Z,19.30
2017-03-11T00:15:44.562Z,19.30
2017-03-11T00:16:33.699Z,19.30
2017-03-11T00:17:33.403Z,19.29
2017-03-11T00:18:33.404Z,19.29
2017-03-11T00:19:48.565Z,19.29
2017-03-11T00:20:22.753Z,19.28
2017-03-11T00:21:38.208Z,19.28
2017-03-11T00:22:39.592Z,19.28
2017-03-11T00:23:28.558Z,19.28
2017-03-11T00:24:32.865Z,19.27
2017-03-11T00:25:37.530Z,19.28
2017-03-11T00:26:28.646Z,19.27
2017-03-11T00:27:21.889Z,19.29
2017-03-11T00:28:48.001Z,19.80
2017-03-11T00:29:33.100Z,19.87
2017-03-11T00:30:33.087Z,19.35
2017-03-11T00:31:37.609Z,19.32
2017-03-11T00:32:36.378Z,19.29
2017-03-11T00:33:44.354Z,19.28
2017-03-11T00:34:39.594Z,19.27
2017-03-11T00:35:40.294Z,19.27
2017-03-11T00:36:34.795Z,19.27
2017-03-11T00:37:43.545Z,19.27
2017-03-11T00:38:26.886Z,19.25
2017-03-11T00:39:43.047Z,19.26
2017-03-11T00:40:37.392Z,19.26
2017-03-11T00:41:37.549Z,19.26
2017-03-11T00:42:44.689Z,19.26
2017-03-11T00:43:47.569Z,19.29
2017-03-11T00:44:43.083Z,19.25
2017-03-11T00:45:23.923Z,19.26
2017-03-11T00:46:28.439Z,19.26
2017-03-11T00:47:27.755Z,19.25
2017-03-11T00:48:35.878Z,19.25
2017-03-11T00:49:56.042Z,19.25
2017-03-11T00:50:36.519Z,19.25
2017-03-11T00:51:39.144Z,19.24
2017-03-11T00:52:26.792Z,19.23
2017-03-11T00:53:32.139Z,19.23
2017-03-11T00:54:45.979Z,19.21
2017-03-11T00:55:38.099Z,19.22
2017-03-11T00:56:48.909Z,19.19
2017-03-11T00:57:46.317Z,19.19
2017-03-11T00:58:32.406Z,19.19
2017-03-11T00:59:56.269Z,19.20
2017-03-11T01:00:47.411Z,19.19
2017-03-11T01:01:43.951Z,19.19
2017-03-11T01:02:33.169Z,19.18
2017-03-11T01:03:37.319Z,19.19
2017-03-11T01:04:46.674Z,19.18
2017-03-11T01:05:36.676Z,19.18
2017-03-11T01:06:32.009Z,19.19
2017-03-11T01:07:39.172Z,19.18
2017-03-11T01:08:46.143Z,19.18
2017-03-11T01:09:37.181Z,19.18
2017-03-11T01:10:34.438Z,19.19
2017-03-11T01:11:45.304Z,19.18
2017-03-11T01:12:44.959Z,19.18
2017-03-11T01:13:38.889Z,19.17
2017-03-11T01:14:43.165Z,19.18
2017-03-11T01:15:27.681Z,19.19
2017-03-11T01:16:26.872Z,19.19
2017-03-11T01:17:45.341Z,19.18
2017-03-11T01:18:41.525Z,19.18
2017-03-11T01:19:50.050Z,19.18
2017-03-11T01:20:34.907Z,19.19
2017-03-11T01:22:39.719Z,19.18
2017-03-11T01:23:38.700Z,19.18
2017-03-11T01:24:31.889Z,19.18
2017-03-11T01:25:37.485Z,19.17
2017-03-11T01:26:47.146Z,19.17
2017-03-11T01:27:38.623Z,19.17
2017-03-11T01:28:49.112Z,19.17
2017-03-11T01:29:38.364Z,19.16
2017-03-11T01:30:41.399Z,19.16
2017-03-11T01:31:47.019Z,19.17
2017-03-11T01:32:37.309Z,19.16
2017-03-11T01:33:40.198Z,19.15
2017-03-11T01:34:45.223Z,19.15
2017-03-11T01:35:40.100Z,19.15
2017-03-11T01:36:25.728Z,19.16
2017-03-11T01:37:34.247Z,19.16
2017-03-11T01:38:39.213Z,19.16
2017-03-11T01:39:46.474Z,19.16
2017-03-11T01:40:36.711Z,19.16
2017-03-11T01:41:43.066Z,19.16
2017-03-11T01:42:34.300Z,19.15
2017-03-11T01:44:49.385Z,19.16
2017-03-11T01:45:37.095Z,19.15
2017-03-11T01:46:48.046Z,19.15
2017-03-11T01:47:42.989Z,19.15
2017-03-11T01:48:43.865Z,19.15
2017-03-11T01:49:43.131Z,19.14
2017-03-11T01:50:34.169Z,19.15
2017-03-11T01:51:34.172Z,19.15
2017-03-11T01:52:41.324Z,19.15
2017-03-11T01:53:28.070Z,19.15
2017-03-11T01:54:42.382Z,19.14
2017-03-11T01:55:46.499Z,19.15
2017-03-11T01:56:43.215Z,19.18
2017-03-11T01:57:37.664Z,19.15
2017-03-11T01:58:37.906Z,19.14
2017-03-11T01:59:39.399Z,19.14
2017-03-11T02:00:42.889Z,19.14
2017-03-11T02:01:21.907Z,19.14
2017-03-11T02:02:39.043Z,19.14
2017-03-11T02:03:38.909Z,19.14
2017-03-11T02:04:39.113Z,19.14
2017-03-11T02:05:28.506Z,19.13
2017-03-11T02:07:34.566Z,19.14
2017-03-11T02:08:44.547Z,19.13
2017-03-11T02:09:27.642Z,19.13
2017-03-11T02:10:26.900Z,19.67
2017-03-11T02:11:38.433Z,19.73
2017-03-11T02:12:49.214Z,19.75
2017-03-11T02:13:37.430Z,19.77
2017-03-11T02:14:50.166Z,19.78
2017-03-11T02:15:37.339Z,19.79
2017-03-11T02:16:43.301Z,19.79
2017-03-11T02:17:43.367Z,19.79
2017-03-11T02:18:38.106Z,19.46
2017-03-11T02:19:28.515Z,19.25
2017-03-11T02:20:40.035Z,19.19
2017-03-11T02:21:48.839Z,19.16
2017-03-11T02:22:23.863Z,19.15
2017-03-11T02:23:27.730Z,19.17
2017-03-11T02:24:38.455Z,19.14
2017-03-11T02:25:42.061Z,19.13
2017-03-11T02:27:37.340Z,19.13
2017-03-11T02:28:34.694Z,19.12
2017-03-11T02:29:51.238Z,19.12
2017-03-11T02:30:47.007Z,19.14
2017-03-11T02:31:44.070Z,19.12
2017-03-11T02:32:36.758Z,19.12
2017-03-11T02:33:47.196Z,19.12
2017-03-11T02:34:47.768Z,19.11
2017-03-11T02:35:41.829Z,19.12
2017-03-11T02:36:39.070Z,19.12
2017-03-11T02:37:36.854Z,19.11
2017-03-11T02:38:44.419Z,19.11
2017-03-11T02:39:39.557Z,19.12
2017-03-11T02:40:39.219Z,19.17
2017-03-11T02:41:34.693Z,19.11
2017-03-11T02:43:43.645Z,19.11
2017-03-11T02:44:53.794Z,19.10
2017-03-11T02:45:31.774Z,19.11
2017-03-11T02:46:37.236Z,19.10
2017-03-11T02:47:39.480Z,19.10
2017-03-11T02:48:33.112Z,19.10
2017-03-11T02:49:45.817Z,19.10
2017-03-11T02:50:46.318Z,19.09
2017-03-11T02:51:47.412Z,19.10
2017-03-11T02:52:38.651Z,19.09
2017-03-11T02:53:47.653Z,19.09
2017-03-11T02:54:37.750Z,19.09
2017-03-11T02:55:37.212Z,19.09
2017-03-11T02:56:23.140Z,19.09
2017-03-11T02:57:39.338Z,19.63
2017-03-11T02:58:43.153Z,19.69
2017-03-11T02:59:53.092Z,19.71
2017-03-11T03:00:27.786Z,19.74
2017-03-11T03:01:39.337Z,19.74
2017-03-11T03:02:27.494Z,19.76
2017-03-11T03:03:42.051Z,19.76
2017-03-11T03:04:42.870Z,19.76
2017-03-11T03:05:39.387Z,19.76
2017-03-11T03:06:26.735Z,19.76
2017-03-11T03:07:27.881Z,19.39
2017-03-11T03:08:38.664Z,19.21
2017-03-11T03:10:36.314Z,19.14
2017-03-11T03:11:28.673Z,19.12
2017-03-11T03:12:39.478Z,19.11
2017-03-11T03:13:38.461Z,19.11
2017-03-11T03:14:42.277Z,19.10
2017-03-11T03:15:33.144Z,19.09
2017-03-11T03:16:38.809Z,19.12
2017-03-11T03:17:43.623Z,19.09
2017-03-11T03:18:34.744Z,19.09
2017-03-11T03:19:48.030Z,19.08
2017-03-11T03:20:43.636Z,19.07
2017-03-11T03:21:28.761Z,19.08
2017-03-11T03:22:39.448Z,19.07
2017-03-11T03:23:27.560Z,19.07
2017-03-11T03:24:42.913Z,19.07
2017-03-11T03:25:28.767Z,19.07
2017-03-11T03:27:46.534Z,19.08
2017-03-11T03:28:39.392Z,19.12
2017-03-11T03:29:38.527Z,19.61
2017-03-11T03:30:28.838Z,19.14
2017-03-11T03:31:39.316Z,19.10
2017-03-11T03:32:37.446Z,19.10
2017-03-11T03:33:38.367Z,19.08
2017-03-11T03:34:33.432Z,19.07
2017-03-11T03:35:39.318Z,19.15
2017-03-11T03:36:28.683Z,19.61
2017-03-11T03:37:33.579Z,19.66
2017-03-11T03:38:53.907Z,19.70
2017-03-11T03:39:48.519Z,19.72
2017-03-11T03:40:27.623Z,19.73
2017-03-11T03:41:38.262Z,19.73
2017-03-11T03:42:22.045Z,19.75
2017-03-11T03:43:37.100Z,19.75
2017-03-11T03:44:28.819Z,19.22
2017-03-11T03:45:36.791Z,19.16
2017-03-11T03:46:27.732Z,19.13
2017-03-11T03:47:39.684Z,19.66
2017-03-11T03:48:47.091Z,19.71
2017-03-11T03:49:28.680Z,19.73
2017-03-11T03:50:32.833Z,19.75
2017-03-11T03:51:36.806Z,19.77
2017-03-11T03:52:34.761Z,19.76
2017-03-11T03:53:40.906Z,19.77
2017-03-11T03:54:27.738Z,19.39
2017-03-11T03:55:28.700Z,19.22
2017-03-11T03:56:33.972Z,19.17
2017-03-11T03:57:47.648Z,19.14
2017-03-11T03:58:34.628Z,19.12
2017-03-11T04:00:40.143Z,19.10
2017-03-11T04:01:34.594Z,19.10
2017-03-11T04:02:36.665Z,19.09
2017-03-11T04:03:47.223Z,19.08
2017-03-11T04:04:37.179Z,19.09
2017-03-11T04:05:38.655Z,19.08
2017-03-11T04:06:38.700Z,19.08
2017-03-11T04:07:38.018Z,19.08
2017-03-11T04:08:44.186Z,19.08
2017-03-11T04:09:29.685Z,19.08
2017-03-11T04:10:27.318Z,19.08
2017-03-11T04:11:34.077Z,19.08
2017-03-11T04:12:48.653Z,19.08
2017-03-11T04:13:27.281Z,19.08
2017-03-11T04:14:48.991Z,19.08
2017-03-11T04:15:39.307Z,19.07
2017-03-11T04:16:27.121Z,19.07
2017-03-11T04:17:28.728Z,19.06
2017-03-11T04:18:34.727Z,19.05
2017-03-11T04:19:43.537Z,19.05
2017-03-11T04:20:38.775Z,19.04
2017-03-11T04:21:40.884Z,19.03
2017-03-11T04:22:38.574Z,19.03
2017-03-11T04:23:34.534Z,19.03
2017-03-11T04:24:37.909Z,19.02
2017-03-11T04:25:32.081Z,19.01
2017-03-11T04:26:37.267Z,19.02
2017-03-11T04:27:33.241Z,19.01
2017-03-11T04:28:37.193Z,19.01
2017-03-11T04:29:29.736Z,19.01
2017-03-11T04:30:39.114Z,19.01
2017-03-11T04:31:49.272Z,19.00
2017-03-11T04:32:29.399Z,19.00
2017-03-11T04:35:39.841Z,19.00
2017-03-11T04:36:32.930Z,18.98
2017-03-11T04:37:32.816Z,18.99
2017-03-11T04:38:26.907Z,19.02
2017-03-11T04:39:35.175Z,18.98
2017-03-11T04:41:38.519Z,18.98
2017-03-11T04:42:35.189Z,18.98
2017-03-11T04:43:23.216Z,18.98
2017-03-11T04:44:28.921Z,18.97
2017-03-11T04:45:39.813Z,18.96
2017-03-11T04:46:26.810Z,19.12
2017-03-11T04:47:38.718Z,19.00
2017-03-11T04:48:27.748Z,18.97
2017-03-11T04:49:37.150Z,18.97
2017-03-11T04:50:47.601Z,18.96
2017-03-11T04:51:27.971Z,19.01
2017-03-11T04:52:28.905Z,18.95
2017-03-11T04:53:37.978Z,18.95
2017-03-11T04:54:46.020Z,18.94
2017-03-11T04:55:38.578Z,18.94
2017-03-11T04:57:42.809Z,18.94
2017-03-11T04:58:35.372Z,18.93
2017-03-11T04:59:43.046Z,18.92
2017-03-11T05:00:37.323Z,18.93
2017-03-11T05:01:37.401Z,18.92
2017-03-11T05:02:22.942Z,18.93
2017-03-11T05:03:33.663Z,18.92
2017-03-11T05:04:33.306Z,18.92
2017-03-11T05:05:39.958Z,18.93
2017-03-11T05:06:28.905Z,18.91
2017-03-11T05:07:34.363Z,19.46
2017-03-11T05:08:43.119Z,19.15
2017-03-11T05:09:38.952Z,19.00
2017-03-11T05:10:26.345Z,18.95
2017-03-11T05:11:26.921Z,18.93
2017-03-11T05:12:43.176Z,19.47
2017-03-11T05:13:27.557Z,19.52
2017-03-11T05:14:34.132Z,19.53
2017-03-11T05:15:28.815Z,19.55
2017-03-11T05:16:35.124Z,19.56
2017-03-11T05:17:34.260Z,19.56
2017-03-11T05:18:34.114Z,19.22
2017-03-11T05:19:34.816Z,19.05
2017-03-11T05:20:32.722Z,19.49
2017-03-11T05:21:47.628Z,19.54
2017-03-11T05:22:27.598Z,19.54
2017-03-11T05:23:42.916Z,19.56
2017-03-11T05:24:32.887Z,19.56
2017-03-11T05:27:56.881Z,19.55
2017-03-11T05:28:02.076Z,19.55
2017-03-11T05:28:12.642Z,19.17
2017-03-11T05:28:33.688Z,19.04
2017-03-11T05:29:39.231Z,18.98
2017-03-11T05:30:46.513Z,18.95
2017-03-11T05:31:27.783Z,18.93
2017-03-11T05:32:42.726Z,18.92
2017-03-11T05:33:27.115Z,18.95
2017-03-11T05:34:33.571Z,18.91
2017-03-11T05:35:38.448Z,18.91
2017-03-11T05:36:32.974Z,18.90
2017-03-11T05:37:39.328Z,18.90
2017-03-11T05:38:34.337Z,18.90
2017-03-11T05:39:28.856Z,18.89
2017-03-11T05:40:27.547Z,18.88
2017-03-11T05:41:32.592Z,18.92
2017-03-11T05:42:32.912Z,18.87
2017-03-11T05:43:27.169Z,19.41
2017-03-11T05:44:37.779Z,19.46
2017-03-11T05:45:33.046Z,18.98
2017-03-11T05:46:34.435Z,18.91
2017-03-11T05:47:29.074Z,18.91
2017-03-11T05:48:38.397Z,18.92
2017-03-11T05:49:28.545Z,18.88
2017-03-11T05:50:33.684Z,18.87
2017-03-11T05:51:32.757Z,18.87
2017-03-11T05:52:27.516Z,18.91
2017-03-11T05:53:27.435Z,18.86
2017-03-11T05:54:31.984Z,18.85
2017-03-11T05:55:33.456Z,18.84
2017-03-11T05:56:33.472Z,18.86
2017-03-11T05:57:27.028Z,18.86
2017-03-11T05:58:28.295Z,18.85
2017-03-11T05:59:28.575Z,18.85
2017-03-11T06:00:34.374Z,18.85
2017-03-11T06:01:28.937Z,18.85
2017-03-11T06:02:38.626Z,18.85
2017-03-11T06:03:32.680Z,18.84
2017-03-11T06:04:20.445Z,18.84
2017-03-11T06:05:37.180Z,18.84
2017-03-11T06:06:42.978Z,18.84
2017-03-11T06:07:38.472Z,18.84
2017-03-11T06:08:38.655Z,18.83
2017-03-11T06:09:43.446Z,18.84
2017-03-11T06:10:32.953Z,18.83
2017-03-11T06:11:40.258Z,18.83
2017-03-11T06:12:46.119Z,18.83
2017-03-11T06:13:27.873Z,18.82
2017-03-11T06:14:36.381Z,18.83
2017-03-11T06:15:40.975Z,18.82
2017-03-11T06:16:41.660Z,18.82
2017-03-11T06:17:22.269Z,18.81
2017-03-11T06:18:33.125Z,18.82
2017-03-11T06:19:32.760Z,18.82
2017-03-11T06:20:38.544Z,18.82
2017-03-11T06:21:33.767Z,18.81
2017-03-11T06:22:33.090Z,18.81
2017-03-11T06:23:39.696Z,18.81
2017-03-11T06:24:33.956Z,18.81
2017-03-11T06:25:27.252Z,18.81
2017-03-11T06:26:28.867Z,18.81
2017-03-11T06:27:33.020Z,18.81
2017-03-11T06:28:41.962Z,18.80
2017-03-11T06:29:37.885Z,18.80
2017-03-11T06:30:34.348Z,18.81
2017-03-11T06:31:33.043Z,18.84
2017-03-11T06:32:28.382Z,18.80
2017-03-11T06:33:34.778Z,18.80
2017-03-11T06:34:33.062Z,18.80
2017-03-11T06:35:28.006Z,18.80
2017-03-11T06:36:34.661Z,18.83
2017-03-11T06:37:37.878Z,19.33
2017-03-11T06:38:24.909Z,19.39
2017-03-11T06:39:33.069Z,19.06
2017-03-11T06:40:42.737Z,18.91
2017-03-11T06:41:21.269Z,18.87
2017-03-11T06:42:37.058Z,18.86
2017-03-11T06:43:35.071Z,18.85
2017-03-11T06:44:33.979Z,18.85
2017-03-11T06:45:28.872Z,18.84
2017-03-11T06:46:27.978Z,18.85
2017-03-11T06:47:23.291Z,18.85
2017-03-11T06:48:29.049Z,18.85
2017-03-11T06:49:40.674Z,18.83
2017-03-11T06:50:27.303Z,18.87
2017-03-11T06:51:32.846Z,18.83
2017-03-11T06:52:33.651Z,18.84
2017-03-11T06:53:26.901Z,18.83
2017-03-11T06:54:37.288Z,18.84
2017-03-11T06:55:35.116Z,18.83
2017-03-11T06:56:29.339Z,18.83
2017-03-11T06:57:39.360Z,18.83
2017-03-11T06:58:38.711Z,18.83
2017-03-11T06:59:28.302Z,18.83
2017-03-11T07:00:27.948Z,18.84
2017-03-11T07:01:37.444Z,19.36
2017-03-11T07:02:27.131Z,19.43
2017-03-11T07:03:38.194Z,19.47
2017-03-11T07:04:42.968Z,19.49
2017-03-11T07:05:33.050Z,19.14
2017-03-11T07:06:43.308Z,18.97
2017-03-11T07:07:29.073Z,18.92
2017-03-11T07:08:28.472Z,19.43
2017-03-11T07:09:33.445Z,19.48
2017-03-11T07:10:56.772Z,19.50
2017-03-11T07:11:53.061Z,19.52
2017-03-11T07:12:35.191Z,19.53
2017-03-11T07:13:33.271Z,19.54
2017-03-11T07:14:43.215Z,19.53
2017-03-11T07:15:50.407Z,19.55
2017-03-11T07:16:29.470Z,19.20
2017-03-11T07:17:44.015Z,19.02
2017-03-11T07:18:44.653Z,18.97
2017-03-11T07:19:28.414Z,18.94
2017-03-11T07:20:33.647Z,18.97
2017-03-11T07:21:27.518Z,18.92
2017-03-11T07:22:39.213Z,18.92
2017-03-11T07:23:27.929Z,18.91
2017-03-11T07:24:33.290Z,19.44
2017-03-11T07:25:43.082Z,19.49
2017-03-11T07:26:37.610Z,19.52
2017-03-11T07:27:41.595Z,19.16
2017-03-11T07:28:33.286Z,19.01
2017-03-11T07:29:46.451Z,18.96
2017-03-11T07:30:37.262Z,19.00
2017-03-11T07:31:40.450Z,18.94
2017-03-11T07:32:33.215Z,18.93
2017-03-11T07:33:34.306Z,18.94
2017-03-11T07:34:33.968Z,18.94
2017-03-11T07:35:43.219Z,18.93
2017-03-11T07:36:38.907Z,18.93
2017-03-11T07:37:42.994Z,18.93
2017-03-11T07:38:27.423Z,18.93
2017-03-11T07:39:29.215Z,18.94
2017-03-11T07:40:36.008Z,18.94
2017-03-11T07:41:39.518Z,18.94
2017-03-11T07:42:29.004Z,18.94
2017-03-11T07:43:27.817Z,18.94
2017-03-11T07:44:28.441Z,18.94
2017-03-11T07:45:46.693Z,18.95
2017-03-11T07:46:36.529Z,18.95
2017-03-11T07:47:37.598Z,18.95
2017-03-11T07:48:23.355Z,18.95
2017-03-11T07:49:27.373Z,18.96
2017-03-11T07:50:35.136Z,18.96
2017-03-11T07:51:39.064Z,18.99
2017-03-11T07:52:34.975Z,19.05
2017-03-11T07:53:27.962Z,19.10
2017-03-11T07:54:27.510Z,19.13
2017-03-11T07:55:36.742Z,19.15
2017-03-11T07:56:37.520Z,19.17
2017-03-11T07:57:33.426Z,19.17
2017-03-11T07:58:36.082Z,19.16
2017-03-11T07:59:37.549Z,19.17
2017-03-11T08:00:36.991Z,19.37
2017-03-11T08:01:33.779Z,19.42
2017-03-11T08:02:28.943Z,19.38
2017-03-11T08:03:29.142Z,19.34
2017-03-11T08:04:40.007Z,19.30
2017-03-11T08:05:34.398Z,19.27
2017-03-11T08:06:38.919Z,19.24
2017-03-11T08:07:39.714Z,19.22
2017-03-11T08:08:33.872Z,19.20
2017-03-11T08:09:43.198Z,19.18
2017-03-11T08:10:38.866Z,19.19
2017-03-11T08:11:33.319Z,19.15
2017-03-11T08:12:34.860Z,19.14
2017-03-11T08:13:34.882Z,19.14
2017-03-11T08:14:34.228Z,19.13
2017-03-11T08:15:39.552Z,19.12
2017-03-11T08:16:34.578Z,19.11
2017-03-11T08:17:39.035Z,19.11
2017-03-11T08:18:33.326Z,19.09
2017-03-11T08:19:40.255Z,19.12
2017-03-11T08:20:41.465Z,19.08
2017-03-11T08:21:33.764Z,19.05
2017-03-11T08:22:48.883Z,19.47
2017-03-11T08:23:45.015Z,19.38
2017-03-11T08:24:34.919Z,18.75
2017-03-11T08:25:41.182Z,18.71
2017-03-11T08:26:38.640Z,18.73
2017-03-11T08:27:39.036Z,18.77
2017-03-11T08:28:35.117Z,18.81
2017-03-11T08:29:39.540Z,18.84
2017-03-11T08:30:39.806Z,18.91
2017-03-11T08:31:35.673Z,18.96
2017-03-11T08:32:34.379Z,19.01
2017-03-11T08:33:39.411Z,19.00
2017-03-11T08:34:33.965Z,19.02
2017-03-11T08:35:35.058Z,19.06
2017-03-11T08:36:39.839Z,19.09
2017-03-11T08:37:43.901Z,19.13
2017-03-11T08:38:39.374Z,19.15
2017-03-11T08:39:35.248Z,19.17
2017-03-11T08:40:34.806Z,19.21
2017-03-11T08:41:39.014Z,19.23
2017-03-11T08:42:34.205Z,19.25
2017-03-11T08:43:36.859Z,19.26
2017-03-11T08:44:47.553Z,19.28
2017-03-11T08:45:38.998Z,19.31
2017-03-11T08:46:34.492Z,19.31
2017-03-11T08:47:39.369Z,19.32
2017-03-11T08:48:45.123Z,19.33
2017-03-11T08:49:39.159Z,19.35
2017-03-11T08:50:34.480Z,19.36
2017-03-11T08:51:34.634Z,19.39
2017-03-11T08:52:36.860Z,19.37
2017-03-11T08:53:34.554Z,19.37
2017-03-11T08:54:36.872Z,19.37
2017-03-11T08:55:37.544Z,19.38
2017-03-11T08:56:34.414Z,19.41
2017-03-11T08:57:43.902Z,19.42
2017-03-11T08:58:35.377Z,19.39
2017-03-11T08:59:39.851Z,19.40
2017-03-11T09:00:39.555Z,19.40
2017-03-11T09:01:34.372Z,19.41
2017-03-11T09:02:39.247Z,19.41
2017-03-11T09:03:34.435Z,19.40
2017-03-11T09:04:40.842Z,19.39
2017-03-11T09:05:43.294Z,19.95
2017-03-11T09:06:38.949Z,19.99
2017-03-11T09:07:32.859Z,20.02
2017-03-11T09:08:38.543Z,20.04
2017-03-11T09:09:39.008Z,20.06
2017-03-11T09:10:38.400Z,20.07
2017-03-11T09:11:35.192Z,20.07
2017-03-11T09:12:22.257Z,20.11
2017-03-11T09:13:35.164Z,19.82
2017-03-11T09:14:31.893Z,19.68
2017-03-11T09:15:34.977Z,19.60
2017-03-11T09:16:32.258Z,19.57
2017-03-11T09:17:27.926Z,19.51
2017-03-11T09:18:32.926Z,19.48
2017-03-11T09:19:32.879Z,19.99
2017-03-11T09:20:27.116Z,19.73
2017-03-11T09:21:44.628Z,19.59
2017-03-11T09:22:39.881Z,19.52
2017-03-11T09:23:29.072Z,19.48
2017-03-11T09:24:33.561Z,19.45
2017-03-11T09:25:33.519Z,19.44
2017-03-11T09:26:35.796Z,19.41
2017-03-11T09:27:33.945Z,19.40
2017-03-11T09:28:27.408Z,19.38
2017-03-11T09:29:38.899Z,19.37
2017-03-11T09:30:33.353Z,19.37
2017-03-11T09:31:40.536Z,19.36
2017-03-11T09:32:34.481Z,19.35
2017-03-11T09:33:49.273Z,19.35
2017-03-11T09:34:43.638Z,19.34
2017-03-11T09:35:34.538Z,19.34
2017-03-11T09:36:39.046Z,19.34
2017-03-11T09:37:39.841Z,19.32
2017-03-11T09:38:33.317Z,19.34
2017-03-11T09:39:37.170Z,19.35
2017-03-11T09:40:33.717Z,19.35
2017-03-11T09:41:33.641Z,19.36
2017-03-11T09:42:34.376Z,19.87
2017-03-11T09:43:38.937Z,19.56
2017-03-11T09:44:40.457Z,19.37
2017-03-11T09:45:34.845Z,19.33
2017-03-11T09:46:35.429Z,19.32
2017-03-11T09:47:34.720Z,19.31
2017-03-11T09:48:39.750Z,19.30
2017-03-11T09:49:42.621Z,19.37
2017-03-11T09:50:39.139Z,19.28
2017-03-11T09:51:38.439Z,19.30
2017-03-11T09:52:33.909Z,19.29
2017-03-11T09:53:34.307Z,19.27
2017-03-11T09:54:33.927Z,19.27
2017-03-11T09:55:34.648Z,19.27
2017-03-11T09:56:50.313Z,19.26
2017-03-11T09:57:35.375Z,19.26
2017-03-11T09:58:39.307Z,19.25
2017-03-11T09:59:40.193Z,19.25
2017-03-11T10:00:43.068Z,19.25
2017-03-11T10:01:35.074Z,19.24
2017-03-11T10:02:34.331Z,19.30
2017-03-11T10:03:39.159Z,19.27
2017-03-11T10:04:35.095Z,19.27
2017-03-11T10:05:30.032Z,19.27
2017-03-11T10:06:35.168Z,19.26
2017-03-11T10:07:37.498Z,19.26
2017-03-11T10:08:35.392Z,19.26
2017-03-11T10:09:52.187Z,19.26
2017-03-11T10:10:43.347Z,19.26
2017-03-11T10:11:33.239Z,19.26
2017-03-11T10:12:41.525Z,19.31
2017-03-11T10:13:37.968Z,19.24
2017-03-11T10:14:38.882Z,19.25
2017-03-11T10:15:34.622Z,19.25
2017-03-11T10:16:39.659Z,19.26
2017-03-11T10:17:38.877Z,19.25
2017-03-11T10:18:34.353Z,19.26
2017-03-11T10:19:34.744Z,19.25
2017-03-11T10:20:34.796Z,19.25
2017-03-11T10:21:33.401Z,19.25
2017-03-11T10:22:33.791Z,19.80
2017-03-11T10:23:33.943Z,19.85
2017-03-11T10:24:37.385Z,19.88
2017-03-11T10:25:34.453Z,19.37
2017-03-11T10:26:34.682Z,19.31
2017-03-11T10:27:34.805Z,19.29
2017-03-11T10:28:34.738Z,19.28
2017-03-11T10:29:35.458Z,19.28
2017-03-11T10:30:39.836Z,19.27
2017-03-11T10:31:43.077Z,19.27
2017-03-11T10:32:34.998Z,19.27
2017-03-11T10:33:33.367Z,19.26
2017-03-11T10:34:36.460Z,19.26
2017-03-11T10:35:33.870Z,19.25
2017-03-11T10:36:47.886Z,19.25
2017-03-11T10:37:28.707Z,19.25
2017-03-11T10:38:34.496Z,19.26
2017-03-11T10:39:43.970Z,19.25
2017-03-11T10:40:34.759Z,19.25
2017-03-11T10:41:33.950Z,19.25
2017-03-11T10:42:28.979Z,19.25
2017-03-11T10:43:38.891Z,19.25
2017-03-11T10:44:34.605Z,19.24
2017-03-11T10:45:40.745Z,19.24
2017-03-11T10:46:33.692Z,19.29
2017-03-11T10:47:47.529Z,19.24
2017-03-11T10:48:33.635Z,19.24
2017-03-11T10:49:43.552Z,19.24
2017-03-11T10:50:38.800Z,19.24
2017-03-11T10:51:38.812Z,19.24
2017-03-11T10:52:39.932Z,19.24
2017-03-11T10:53:34.723Z,19.23
2017-03-11T10:54:44.601Z,19.23
2017-03-11T10:55:40.399Z,19.26
2017-03-11T10:56:46.105Z,19.28
2017-03-11T10:57:38.837Z,19.25
2017-03-11T10:58:42.957Z,19.78
2017-03-11T10:59:43.218Z,19.83
2017-03-11T11:00:38.671Z,19.49
2017-03-11T11:01:35.159Z,19.31
2017-03-11T11:02:38.729Z,19.28
2017-03-11T11:03:44.968Z,19.25
2017-03-11T11:04:34.843Z,19.24
2017-03-11T11:05:34.978Z,19.23
2017-03-11T11:06:39.049Z,19.22
2017-03-11T11:07:45.931Z,19.22
2017-03-11T11:08:33.198Z,19.22
2017-03-11T11:09:43.208Z,19.22
2017-03-11T11:10:38.174Z,19.21
2017-03-11T11:11:38.902Z,19.21
2017-03-11T11:12:38.750Z,19.22
2017-03-11T11:13:44.137Z,19.21
2017-03-11T11:14:34.198Z,19.22
2017-03-11T11:15:39.656Z,19.22
2017-03-11T11:16:34.550Z,19.21
2017-03-11T11:17:35.290Z,19.21
2017-03-11T11:18:46.344Z,19.22
2017-03-11T11:19:32.790Z,19.21
2017-03-11T11:20:33.107Z,19.22
2017-03-11T11:21:38.745Z,19.22
2017-03-11T11:22:34.275Z,19.21
2017-03-11T11:23:34.352Z,19.21
2017-03-11T11:24:34.748Z,19.20
2017-03-11T11:25:34.490Z,19.20
2017-03-11T11:26:34.273Z,19.19
2017-03-11T11:27:34.618Z,19.20
2017-03-11T11:28:34.467Z,19.20
2017-03-11T11:29:39.066Z,19.20
2017-03-11T11:30:40.438Z,19.25
2017-03-11T11:31:33.996Z,19.19
2017-03-11T11:32:42.985Z,19.19
2017-03-11T11:33:42.900Z,19.18
2017-03-11T11:34:34.285Z,19.18
2017-03-11T11:35:35.267Z,19.19
2017-03-11T11:36:38.930Z,19.19
2017-03-11T11:37:38.130Z,19.20
2017-03-11T11:38:35.124Z,19.20
2017-03-11T11:39:35.008Z,19.20
2017-03-11T11:40:39.148Z,19.20
2017-03-11T11:41:34.961Z,19.21
2017-03-11T11:42:38.693Z,19.23
2017-03-11T11:43:35.103Z,19.75
2017-03-11T11:44:37.772Z,19.81
2017-03-11T11:45:43.040Z,19.83
2017-03-11T11:46:35.094Z,19.31
2017-03-11T11:47:38.577Z,19.26
2017-03-11T11:48:35.494Z,19.23
2017-03-11T11:49:34.736Z,19.29
2017-03-11T11:50:38.753Z,19.23
2017-03-11T11:51:34.553Z,19.23
2017-03-11T11:52:40.834Z,19.22
2017-03-11T11:53:37.880Z,19.22
2017-03-11T11:54:37.434Z,19.22
2017-03-11T11:55:33.613Z,19.22
2017-03-11T11:56:38.750Z,19.22
2017-03-11T11:57:46.253Z,19.22
2017-03-11T11:58:37.201Z,19.21
2017-03-11T11:59:29.270Z,19.21
2017-03-11T12:00:44.434Z,19.21
2017-03-11T12:01:38.200Z,19.21
2017-03-11T12:02:34.697Z,19.22
2017-03-11T12:03:40.110Z,19.22
2017-03-11T12:04:43.288Z,19.25
2017-03-11T12:05:43.703Z,19.76
2017-03-11T12:06:33.557Z,19.29
2017-03-11T12:07:43.789Z,19.26
2017-03-11T12:08:34.612Z,19.26
2017-03-11T12:09:39.198Z,19.26
2017-03-11T12:10:35.534Z,19.25
2017-03-11T12:11:39.263Z,19.25
2017-03-11T12:12:34.525Z,19.25
2017-03-11T12:13:42.949Z,19.26
2017-03-11T12:14:43.979Z,19.26
2017-03-11T12:15:44.428Z,19.26
2017-03-11T12:16:33.554Z,19.25
2017-03-11T12:17:33.533Z,19.25
2017-03-11T12:18:33.386Z,19.32
2017-03-11T12:19:34.198Z,19.26
2017-03-11T12:20:35.139Z,19.34
2017-03-11T12:21:38.962Z,19.27
2017-03-11T12:22:39.343Z,19.29
2017-03-11T12:23:34.250Z,19.30
2017-03-11T12:24:34.651Z,19.31
2017-03-11T12:25:39.127Z,19.32
2017-03-11T12:26:38.719Z,19.33
2017-03-11T12:27:37.670Z,19.33
2017-03-11T12:28:37.601Z,19.33
2017-03-11T12:29:33.256Z,19.38
2017-03-11T12:30:34.527Z,19.33
2017-03-11T12:31:38.863Z,19.33
2017-03-11T12:32:34.566Z,19.33
2017-03-11T12:33:39.242Z,19.33
2017-03-11T12:34:34.449Z,19.33
2017-03-11T12:35:34.194Z,19.33
2017-03-11T12:36:35.219Z,19.32
2017-03-11T12:37:39.690Z,19.32
2017-03-11T12:38:33.326Z,19.31
2017-03-11T12:39:33.281Z,19.32
2017-03-11T12:40:39.322Z,19.30
2017-03-11T12:41:38.744Z,19.29
2017-03-11T12:42:34.519Z,19.30
2017-03-11T12:43:43.905Z,19.30
2017-03-11T12:44:38.863Z,19.29
2017-03-11T12:45:34.634Z,19.29
2017-03-11T12:46:35.423Z,19.29
2017-03-11T12:47:33.525Z,19.29
2017-03-11T12:48:38.606Z,19.30
2017-03-11T12:49:37.323Z,19.30
2017-03-11T12:50:41.700Z,19.30
2017-03-11T12:51:32.773Z,19.30
2017-03-11T12:52:43.539Z,19.29
2017-03-11T12:53:49.076Z,19.30
2017-03-11T12:54:38.035Z,19.28
2017-03-11T12:55:42.838Z,19.30
2017-03-11T12:56:34.543Z,19.30
2017-03-11T12:57:33.773Z,19.30
2017-03-11T12:58:38.973Z,19.29
2017-03-11T12:59:46.319Z,19.30
2017-03-11T13:00:40.683Z,19.29
2017-03-11T13:01:47.589Z,19.26
2017-03-11T13:02:33.814Z,19.27
2017-03-11T13:03:42.913Z,19.27
2017-03-11T13:04:35.218Z,19.28